sensor_id;sensor_type;location;lat;lon;timestamp;temperature;humidity
14585;DHT22;7379;51.506;11.876;2023-04-23T00:01:13;17.60;57.90
14585;DHT22;7379;51.506;11.876;2023-04-23T00:03:42;17.60;57.30
14585;DHT22;7379;51.506;11.876;2023-04-23T00:06:10;17.50;57.20
14585;DHT22;7379;51.506;11.876;2023-04-23T00:08:38;17.60;57.40
14585;DHT22;7379;51.506;11.876;2023-04-23T00:11:06;17.60;57.50
14585;DHT22;7379;51.506;11.876;2023-04-23T00:13:35;17.60;57.50
14585;DHT22;7379;51.506;11.876;2023-04-23T00:16:02;17.60;57.60
14585;DHT22;7379;51.506;11.876;2023-04-23T00:18:29;17.50;57.60
14585;DHT22;7379;51.506;11.876;2023-04-23T00:20:56;17.50;57.60
14585;DHT22;7379;51.506;11.876;2023-04-23T00:23:23;17.50;57.70
14585;DHT22;7379;51.506;11.876;2023-04-23T00:25:49;17.50;57.70
14585;DHT22;7379;51.506;11.876;2023-04-23T00:28:16;17.50;57.70
14585;DHT22;7379;51.506;11.876;2023-04-23T00:30:44;17.50;57.80
14585;DHT22;7379;51.506;11.876;2023-04-23T00:33:11;17.50;57.80
14585;DHT22;7379;51.506;11.876;2023-04-23T00:35:38;17.50;57.80
14585;DHT22;7379;51.506;11.876;2023-04-23T00:38:05;17.50;57.90
14585;DHT22;7379;51.506;11.876;2023-04-23T00:40:31;17.40;57.80
14585;DHT22;7379;51.506;11.876;2023-04-23T00:42:59;17.40;57.90
14585;DHT22;7379;51.506;11.876;2023-04-23T00:45:26;17.40;57.90
14585;DHT22;7379;51.506;11.876;2023-04-23T00:47:55;17.40;57.90
14585;DHT22;7379;51.506;11.876;2023-04-23T00:50:22;17.40;57.90
14585;DHT22;7379;51.506;11.876;2023-04-23T00:52:49;17.40;57.90
14585;DHT22;7379;51.506;11.876;2023-04-23T00:55:16;17.40;58.00
14585;DHT22;7379;51.506;11.876;2023-04-23T00:57:45;17.40;58.00
14585;DHT22;7379;51.506;11.876;2023-04-23T01:00:13;17.40;58.10
14585;DHT22;7379;51.506;11.876;2023-04-23T01:02:40;17.40;58.10
14585;DHT22;7379;51.506;11.876;2023-04-23T01:05:11;17.40;58.10
14585;DHT22;7379;51.506;11.876;2023-04-23T01:07:39;17.40;58.10
14585;DHT22;7379;51.506;11.876;2023-04-23T01:10:09;17.40;58.10
14585;DHT22;7379;51.506;11.876;2023-04-23T01:12:36;17.30;58.10
14585;DHT22;7379;51.506;11.876;2023-04-23T01:15:04;17.30;58.20
14585;DHT22;7379;51.506;11.876;2023-04-23T01:17:32;17.30;58.20
14585;DHT22;7379;51.506;11.876;2023-04-23T01:19:59;17.30;58.20
14585;DHT22;7379;51.506;11.876;2023-04-23T01:22:27;17.30;58.30
14585;DHT22;7379;51.506;11.876;2023-04-23T01:24:54;17.30;58.30
14585;DHT22;7379;51.506;11.876;2023-04-23T01:27:22;17.30;58.30
14585;DHT22;7379;51.506;11.876;2023-04-23T01:29:49;17.30;58.30
14585;DHT22;7379;51.506;11.876;2023-04-23T01:32:16;17.30;58.30
14585;DHT22;7379;51.506;11.876;2023-04-23T01:34:43;17.30;58.30
14585;DHT22;7379;51.506;11.876;2023-04-23T01:37:12;17.30;58.40
14585;DHT22;7379;51.506;11.876;2023-04-23T01:39:40;17.30;58.40
14585;DHT22;7379;51.506;11.876;2023-04-23T01:42:07;17.30;58.50
14585;DHT22;7379;51.506;11.876;2023-04-23T01:44:34;17.30;59.20
14585;DHT22;7379;51.506;11.876;2023-04-23T01:47:01;17.20;58.50
14585;DHT22;7379;51.506;11.876;2023-04-23T01:49:28;17.20;58.60
14585;DHT22;7379;51.506;11.876;2023-04-23T01:51:55;17.20;58.60
14585;DHT22;7379;51.506;11.876;2023-04-23T01:54:21;17.20;58.70
14585;DHT22;7379;51.506;11.876;2023-04-23T01:56:50;17.20;58.70
14585;DHT22;7379;51.506;11.876;2023-04-23T01:59:19;17.20;58.80
14585;DHT22;7379;51.506;11.876;2023-04-23T02:01:47;17.20;58.80
14585;DHT22;7379;51.506;11.876;2023-04-23T02:04:15;17.20;58.90
14585;DHT22;7379;51.506;11.876;2023-04-23T02:06:44;17.20;58.90
14585;DHT22;7379;51.506;11.876;2023-04-23T02:09:11;17.20;58.90
14585;DHT22;7379;51.506;11.876;2023-04-23T02:11:38;17.20;59.00
14585;DHT22;7379;51.506;11.876;2023-04-23T02:14:08;17.10;59.10
14585;DHT22;7379;51.506;11.876;2023-04-23T02:16:35;17.10;59.10
14585;DHT22;7379;51.506;11.876;2023-04-23T02:19:02;17.10;59.10
14585;DHT22;7379;51.506;11.876;2023-04-23T02:21:29;17.10;59.20
14585;DHT22;7379;51.506;11.876;2023-04-23T02:23:56;17.10;59.30
14585;DHT22;7379;51.506;11.876;2023-04-23T02:26:23;17.10;59.30
14585;DHT22;7379;51.506;11.876;2023-04-23T02:28:50;17.10;59.30
14585;DHT22;7379;51.506;11.876;2023-04-23T02:31:19;17.10;59.30
14585;DHT22;7379;51.506;11.876;2023-04-23T02:33:46;17.10;59.40
14585;DHT22;7379;51.506;11.876;2023-04-23T02:36:12;17.10;59.40
14585;DHT22;7379;51.506;11.876;2023-04-23T02:38:40;17.10;59.50
14585;DHT22;7379;51.506;11.876;2023-04-23T02:41:09;17.10;59.50
14585;DHT22;7379;51.506;11.876;2023-04-23T02:43:36;17.10;59.60
14585;DHT22;7379;51.506;11.876;2023-04-23T02:46:03;17.10;59.60
14585;DHT22;7379;51.506;11.876;2023-04-23T02:48:35;17.10;59.70
14585;DHT22;7379;51.506;11.876;2023-04-23T02:51:03;17.00;59.60
14585;DHT22;7379;51.506;11.876;2023-04-23T02:53:30;17.00;59.60
14585;DHT22;7379;51.506;11.876;2023-04-23T02:55:57;17.00;59.70
14585;DHT22;7379;51.506;11.876;2023-04-23T02:58:24;17.00;59.70
14585;DHT22;7379;51.506;11.876;2023-04-23T03:00:51;17.00;59.80
14585;DHT22;7379;51.506;11.876;2023-04-23T03:03:18;17.00;59.80
14585;DHT22;7379;51.506;11.876;2023-04-23T03:05:46;17.00;59.80
14585;DHT22;7379;51.506;11.876;2023-04-23T03:08:13;17.00;60.00
14585;DHT22;7379;51.506;11.876;2023-04-23T03:10:40;17.00;59.90
14585;DHT22;7379;51.506;11.876;2023-04-23T03:13:07;16.90;59.90
14585;DHT22;7379;51.506;11.876;2023-04-23T03:15:33;16.90;60.00
14585;DHT22;7379;51.506;11.876;2023-04-23T03:18:00;16.90;60.00
14585;DHT22;7379;51.506;11.876;2023-04-23T03:20:29;16.90;60.10
14585;DHT22;7379;51.506;11.876;2023-04-23T03:22:57;16.90;60.20
14585;DHT22;7379;51.506;11.876;2023-04-23T03:25:24;16.90;60.30
14585;DHT22;7379;51.506;11.876;2023-04-23T03:27:51;16.90;60.40
14585;DHT22;7379;51.506;11.876;2023-04-23T03:30:18;16.90;60.40
14585;DHT22;7379;51.506;11.876;2023-04-23T03:32:45;16.90;60.60
14585;DHT22;7379;51.506;11.876;2023-04-23T03:35:12;16.90;60.70
14585;DHT22;7379;51.506;11.876;2023-04-23T03:37:39;16.90;60.70
14585;DHT22;7379;51.506;11.876;2023-04-23T03:40:08;16.80;60.70
14585;DHT22;7379;51.506;11.876;2023-04-23T03:42:35;16.80;60.90
14585;DHT22;7379;51.506;11.876;2023-04-23T03:45:03;16.80;61.00
14585;DHT22;7379;51.506;11.876;2023-04-23T03:47:30;16.80;61.00
14585;DHT22;7379;51.506;11.876;2023-04-23T03:49:56;16.80;61.10
14585;DHT22;7379;51.506;11.876;2023-04-23T03:52:23;16.80;61.40
14585;DHT22;7379;51.506;11.876;2023-04-23T03:54:50;16.80;61.30
14585;DHT22;7379;51.506;11.876;2023-04-23T03:57:19;16.80;61.40
14585;DHT22;7379;51.506;11.876;2023-04-23T03:59:46;16.80;61.30
14585;DHT22;7379;51.506;11.876;2023-04-23T04:02:13;16.80;61.30
14585;DHT22;7379;51.506;11.876;2023-04-23T04:04:40;16.80;61.50
14585;DHT22;7379;51.506;11.876;2023-04-23T04:07:07;16.70;61.40
14585;DHT22;7379;51.506;11.876;2023-04-23T04:09:37;16.70;61.40
14585;DHT22;7379;51.506;11.876;2023-04-23T04:12:04;16.70;61.30
14585;DHT22;7379;51.506;11.876;2023-04-23T04:14:32;16.70;61.40
14585;DHT22;7379;51.506;11.876;2023-04-23T04:16:59;16.70;61.50
14585;DHT22;7379;51.506;11.876;2023-04-23T04:19:26;16.70;61.60
14585;DHT22;7379;51.506;11.876;2023-04-23T04:21:53;16.70;61.70
14585;DHT22;7379;51.506;11.876;2023-04-23T04:24:20;16.70;61.80
14585;DHT22;7379;51.506;11.876;2023-04-23T04:26:49;16.70;61.70
14585;DHT22;7379;51.506;11.876;2023-04-23T04:29:17;16.70;62.50
14585;DHT22;7379;51.506;11.876;2023-04-23T04:31:46;16.60;61.70
14585;DHT22;7379;51.506;11.876;2023-04-23T04:34:13;16.60;61.90
14585;DHT22;7379;51.506;11.876;2023-04-23T04:36:40;16.60;61.90
14585;DHT22;7379;51.506;11.876;2023-04-23T04:39:07;16.60;61.90
14585;DHT22;7379;51.506;11.876;2023-04-23T04:41:35;16.60;61.90
14585;DHT22;7379;51.506;11.876;2023-04-23T04:44:02;16.60;62.00
14585;DHT22;7379;51.506;11.876;2023-04-23T04:46:29;16.60;62.00
14585;DHT22;7379;51.506;11.876;2023-04-23T04:48:57;16.50;62.00
14585;DHT22;7379;51.506;11.876;2023-04-23T04:51:24;16.60;62.20
14585;DHT22;7379;51.506;11.876;2023-04-23T04:53:51;16.60;62.30
14585;DHT22;7379;51.506;11.876;2023-04-23T04:56:18;16.60;62.50
14585;DHT22;7379;51.506;11.876;2023-04-23T04:58:48;16.50;62.30
14585;DHT22;7379;51.506;11.876;2023-04-23T05:01:15;16.50;62.40
14585;DHT22;7379;51.506;11.876;2023-04-23T05:03:42;16.50;62.50
14585;DHT22;7379;51.506;11.876;2023-04-23T05:06:11;16.50;62.60
14585;DHT22;7379;51.506;11.876;2023-04-23T05:08:38;16.50;62.60
14585;DHT22;7379;51.506;11.876;2023-04-23T05:11:05;16.50;62.60
14585;DHT22;7379;51.506;11.876;2023-04-23T05:13:32;16.50;62.70
14585;DHT22;7379;51.506;11.876;2023-04-23T05:15:59;16.50;62.80
14585;DHT22;7379;51.506;11.876;2023-04-23T05:18:26;16.50;62.90
14585;DHT22;7379;51.506;11.876;2023-04-23T05:20:54;16.50;63.00
14585;DHT22;7379;51.506;11.876;2023-04-23T05:23:22;16.50;63.00
14585;DHT22;7379;51.506;11.876;2023-04-23T05:25:49;16.50;63.10
14585;DHT22;7379;51.506;11.876;2023-04-23T05:28:17;16.40;63.10
14585;DHT22;7379;51.506;11.876;2023-04-23T05:30:44;16.40;63.10
14585;DHT22;7379;51.506;11.876;2023-04-23T05:33:11;16.40;63.10
14585;DHT22;7379;51.506;11.876;2023-04-23T05:35:38;16.40;63.20
14585;DHT22;7379;51.506;11.876;2023-04-23T05:38:05;16.40;63.30
14585;DHT22;7379;51.506;11.876;2023-04-23T05:40:33;16.40;63.30
14585;DHT22;7379;51.506;11.876;2023-04-23T05:43:00;16.40;63.40
14585;DHT22;7379;51.506;11.876;2023-04-23T05:45:27;16.40;63.40
14585;DHT22;7379;51.506;11.876;2023-04-23T05:47:54;16.40;63.60
14585;DHT22;7379;51.506;11.876;2023-04-23T05:50:21;16.40;63.60
14585;DHT22;7379;51.506;11.876;2023-04-23T05:52:47;16.40;63.70
14585;DHT22;7379;51.506;11.876;2023-04-23T05:55:14;16.40;63.80
14585;DHT22;7379;51.506;11.876;2023-04-23T05:57:44;16.30;63.70
14585;DHT22;7379;51.506;11.876;2023-04-23T06:00:11;16.30;63.80
14585;DHT22;7379;51.506;11.876;2023-04-23T06:02:39;16.30;63.80
14585;DHT22;7379;51.506;11.876;2023-04-23T06:05:06;16.30;63.90
14585;DHT22;7379;51.506;11.876;2023-04-23T06:07:33;16.30;64.00
14585;DHT22;7379;51.506;11.876;2023-04-23T06:10:00;16.30;64.00
14585;DHT22;7379;51.506;11.876;2023-04-23T06:12:27;16.30;64.20
14585;DHT22;7379;51.506;11.876;2023-04-23T06:14:55;16.30;64.20
14585;DHT22;7379;51.506;11.876;2023-04-23T06:17:22;16.30;64.30
14585;DHT22;7379;51.506;11.876;2023-04-23T06:19:49;16.30;64.40
14585;DHT22;7379;51.506;11.876;2023-04-23T06:22:16;16.30;64.50
14585;DHT22;7379;51.506;11.876;2023-04-23T06:24:42;16.30;64.50
14585;DHT22;7379;51.506;11.876;2023-04-23T06:27:09;16.30;64.70
14585;DHT22;7379;51.506;11.876;2023-04-23T06:29:36;16.30;64.80
14585;DHT22;7379;51.506;11.876;2023-04-23T06:32:04;16.20;64.80
14585;DHT22;7379;51.506;11.876;2023-04-23T06:34:31;16.20;64.80
14585;DHT22;7379;51.506;11.876;2023-04-23T06:36:58;16.20;64.90
14585;DHT22;7379;51.506;11.876;2023-04-23T06:39:25;16.20;65.00
14585;DHT22;7379;51.506;11.876;2023-04-23T06:41:51;16.20;65.10
14585;DHT22;7379;51.506;11.876;2023-04-23T06:44:18;16.20;65.20
14585;DHT22;7379;51.506;11.876;2023-04-23T06:46:45;16.20;65.20
14585;DHT22;7379;51.506;11.876;2023-04-23T06:49:13;16.20;65.20
14585;DHT22;7379;51.506;11.876;2023-04-23T06:51:40;16.20;65.20
14585;DHT22;7379;51.506;11.876;2023-04-23T06:54:07;16.20;65.20
14585;DHT22;7379;51.506;11.876;2023-04-23T06:56:33;16.20;65.30
14585;DHT22;7379;51.506;11.876;2023-04-23T06:59:00;16.20;65.30
14585;DHT22;7379;51.506;11.876;2023-04-23T07:01:27;16.20;65.40
14585;DHT22;7379;51.506;11.876;2023-04-23T07:03:55;16.20;66.40
14585;DHT22;7379;51.506;11.876;2023-04-23T07:06:23;16.20;66.90
14585;DHT22;7379;51.506;11.876;2023-04-23T07:08:50;16.20;66.90
14585;DHT22;7379;51.506;11.876;2023-04-23T07:11:16;16.20;66.50
14585;DHT22;7379;51.506;11.876;2023-04-23T07:13:43;16.20;66.20
14585;DHT22;7379;51.506;11.876;2023-04-23T07:16:10;16.20;66.20
14585;DHT22;7379;51.506;11.876;2023-04-23T07:18:37;16.20;66.40
14585;DHT22;7379;51.506;11.876;2023-04-23T07:21:04;16.20;66.20
14585;DHT22;7379;51.506;11.876;2023-04-23T07:23:32;16.20;66.20
14585;DHT22;7379;51.506;11.876;2023-04-23T07:25:59;16.20;66.20
14585;DHT22;7379;51.506;11.876;2023-04-23T07:28:25;16.20;66.20
14585;DHT22;7379;51.506;11.876;2023-04-23T07:30:52;16.20;66.30
14585;DHT22;7379;51.506;11.876;2023-04-23T07:33:19;16.20;66.30
14585;DHT22;7379;51.506;11.876;2023-04-23T07:35:46;16.20;66.40
14585;DHT22;7379;51.506;11.876;2023-04-23T07:38:13;16.20;66.50
14585;DHT22;7379;51.506;11.876;2023-04-23T07:40:41;16.20;66.60
14585;DHT22;7379;51.506;11.876;2023-04-23T07:43:08;16.20;66.60
14585;DHT22;7379;51.506;11.876;2023-04-23T07:45:36;16.20;66.50
14585;DHT22;7379;51.506;11.876;2023-04-23T07:48:03;16.20;66.40
14585;DHT22;7379;51.506;11.876;2023-04-23T07:50:30;16.20;66.70
14585;DHT22;7379;51.506;11.876;2023-04-23T07:52:57;16.20;66.40
14585;DHT22;7379;51.506;11.876;2023-04-23T07:55:24;16.20;66.30
14585;DHT22;7379;51.506;11.876;2023-04-23T07:57:52;16.10;66.20
14585;DHT22;7379;51.506;11.876;2023-04-23T08:00:19;16.10;66.20
14585;DHT22;7379;51.506;11.876;2023-04-23T08:02:46;16.10;66.40
14585;DHT22;7379;51.506;11.876;2023-04-23T08:05:13;16.10;66.60
14585;DHT22;7379;51.506;11.876;2023-04-23T08:07:40;16.10;66.50
14585;DHT22;7379;51.506;11.876;2023-04-23T08:10:07;16.10;66.60
14585;DHT22;7379;51.506;11.876;2023-04-23T08:12:35;16.10;66.80
14585;DHT22;7379;51.506;11.876;2023-04-23T08:15:04;16.10;66.60
14585;DHT22;7379;51.506;11.876;2023-04-23T08:17:31;16.10;66.50
14585;DHT22;7379;51.506;11.876;2023-04-23T08:19:58;16.10;66.60
14585;DHT22;7379;51.506;11.876;2023-04-23T08:22:24;16.10;66.80
14585;DHT22;7379;51.506;11.876;2023-04-23T08:24:51;16.10;67.00
14585;DHT22;7379;51.506;11.876;2023-04-23T08:27:18;16.10;67.20
14585;DHT22;7379;51.506;11.876;2023-04-23T08:29:45;16.00;67.10
14585;DHT22;7379;51.506;11.876;2023-04-23T08:32:13;16.00;67.00
14585;DHT22;7379;51.506;11.876;2023-04-23T08:34:41;16.00;69.50
14585;DHT22;7379;51.506;11.876;2023-04-23T08:37:08;15.90;69.90
14585;DHT22;7379;51.506;11.876;2023-04-23T08:39:35;15.90;70.70
14585;DHT22;7379;51.506;11.876;2023-04-23T08:42:10;15.80;71.20
14585;DHT22;7379;51.506;11.876;2023-04-23T08:44:37;15.80;71.10
14585;DHT22;7379;51.506;11.876;2023-04-23T08:47:06;15.70;71.20
14585;DHT22;7379;51.506;11.876;2023-04-23T08:49:40;15.70;71.40
14585;DHT22;7379;51.506;11.876;2023-04-23T08:52:14;15.60;71.40
14585;DHT22;7379;51.506;11.876;2023-04-23T08:54:45;15.60;71.10
14585;DHT22;7379;51.506;11.876;2023-04-23T08:57:13;15.60;71.30
14585;DHT22;7379;51.506;11.876;2023-04-23T08:59:42;15.60;71.70
14585;DHT22;7379;51.506;11.876;2023-04-23T09:02:09;15.60;72.40
14585;DHT22;7379;51.506;11.876;2023-04-23T09:04:37;15.60;72.80
14585;DHT22;7379;51.506;11.876;2023-04-23T09:07:04;15.70;72.80
14585;DHT22;7379;51.506;11.876;2023-04-23T09:09:36;15.70;72.40
14585;DHT22;7379;51.506;11.876;2023-04-23T09:12:04;15.70;72.30
14585;DHT22;7379;51.506;11.876;2023-04-23T09:14:31;15.70;72.50
14585;DHT22;7379;51.506;11.876;2023-04-23T09:16:58;15.80;72.50
14585;DHT22;7379;51.506;11.876;2023-04-23T09:19:26;15.80;72.20
14585;DHT22;7379;51.506;11.876;2023-04-23T09:21:54;15.80;72.10
14585;DHT22;7379;51.506;11.876;2023-04-23T09:24:21;15.80;72.50
14585;DHT22;7379;51.506;11.876;2023-04-23T09:26:50;15.80;72.30
14585;DHT22;7379;51.506;11.876;2023-04-23T09:29:18;15.80;72.60
14585;DHT22;7379;51.506;11.876;2023-04-23T09:31:46;15.80;72.50
14585;DHT22;7379;51.506;11.876;2023-04-23T09:34:14;15.80;72.30
14585;DHT22;7379;51.506;11.876;2023-04-23T09:36:42;15.90;72.50
14585;DHT22;7379;51.506;11.876;2023-04-23T09:39:15;15.90;71.90
14585;DHT22;7379;51.506;11.876;2023-04-23T09:41:43;15.90;71.70
14585;DHT22;7379;51.506;11.876;2023-04-23T09:44:12;15.90;71.10
14585;DHT22;7379;51.506;11.876;2023-04-23T09:46:43;16.00;70.80
14585;DHT22;7379;51.506;11.876;2023-04-23T09:49:11;16.00;70.50
14585;DHT22;7379;51.506;11.876;2023-04-23T09:51:39;16.10;69.60
14585;DHT22;7379;51.506;11.876;2023-04-23T09:54:11;16.10;69.00
14585;DHT22;7379;51.506;11.876;2023-04-23T09:56:40;16.10;68.30
14585;DHT22;7379;51.506;11.876;2023-04-23T09:59:24;16.20;67.70
14585;DHT22;7379;51.506;11.876;2023-04-23T10:01:51;16.20;68.30
14585;DHT22;7379;51.506;11.876;2023-04-23T10:04:19;16.20;67.20
14585;DHT22;7379;51.506;11.876;2023-04-23T10:06:47;16.30;65.60
14585;DHT22;7379;51.506;11.876;2023-04-23T10:09:14;16.30;63.80
14585;DHT22;7379;51.506;11.876;2023-04-23T10:11:43;16.30;63.00
14585;DHT22;7379;51.506;11.876;2023-04-23T10:14:10;16.40;62.50
14585;DHT22;7379;51.506;11.876;2023-04-23T10:16:38;16.40;60.50
14585;DHT22;7379;51.506;11.876;2023-04-23T10:19:08;16.40;61.90
14585;DHT22;7379;51.506;11.876;2023-04-23T10:21:37;16.30;62.80
14585;DHT22;7379;51.506;11.876;2023-04-23T10:24:05;16.30;62.30
14585;DHT22;7379;51.506;11.876;2023-04-23T10:26:33;16.30;61.50
14585;DHT22;7379;51.506;11.876;2023-04-23T10:29:04;16.20;61.70
14585;DHT22;7379;51.506;11.876;2023-04-23T10:31:34;16.30;62.00
14585;DHT22;7379;51.506;11.876;2023-04-23T10:34:03;16.30;63.00
14585;DHT22;7379;51.506;11.876;2023-04-23T10:36:32;16.30;61.50
14585;DHT22;7379;51.506;11.876;2023-04-23T10:38:59;16.40;61.10
14585;DHT22;7379;51.506;11.876;2023-04-23T10:41:33;16.40;61.30
14585;DHT22;7379;51.506;11.876;2023-04-23T10:44:03;16.40;61.70
14585;DHT22;7379;51.506;11.876;2023-04-23T10:46:31;16.50;60.30
14585;DHT22;7379;51.506;11.876;2023-04-23T10:49:09;16.40;59.60
14585;DHT22;7379;51.506;11.876;2023-04-23T10:51:39;16.40;59.60
14585;DHT22;7379;51.506;11.876;2023-04-23T10:54:07;16.40;59.60
14585;DHT22;7379;51.506;11.876;2023-04-23T10:56:37;16.50;59.90
14585;DHT22;7379;51.506;11.876;2023-04-23T10:59:06;16.50;59.90
14585;DHT22;7379;51.506;11.876;2023-04-23T11:01:34;16.60;59.70
14585;DHT22;7379;51.506;11.876;2023-04-23T11:04:18;16.60;59.80
14585;DHT22;7379;51.506;11.876;2023-04-23T11:06:55;16.70;60.90
14585;DHT22;7379;51.506;11.876;2023-04-23T11:09:47;16.70;60.00
14585;DHT22;7379;51.506;11.876;2023-04-23T11:12:30;16.80;59.40
14585;DHT22;7379;51.506;11.876;2023-04-23T11:15:09;16.80;59.00
14585;DHT22;7379;51.506;11.876;2023-04-23T11:17:58;16.90;58.40
14585;DHT22;7379;51.506;11.876;2023-04-23T11:20:24;17.00;58.40
14585;DHT22;7379;51.506;11.876;2023-04-23T11:22:51;16.90;58.30
14585;DHT22;7379;51.506;11.876;2023-04-23T11:25:19;17.00;57.90
14585;DHT22;7379;51.506;11.876;2023-04-23T11:27:47;17.00;57.90
14585;DHT22;7379;51.506;11.876;2023-04-23T11:30:17;17.10;57.80
14585;DHT22;7379;51.506;11.876;2023-04-23T11:32:46;17.10;57.40
14585;DHT22;7379;51.506;11.876;2023-04-23T11:35:13;17.20;56.10
14585;DHT22;7379;51.506;11.876;2023-04-23T11:37:42;17.10;55.00
14585;DHT22;7379;51.506;11.876;2023-04-23T11:40:10;17.10;55.20
14585;DHT22;7379;51.506;11.876;2023-04-23T11:42:42;17.10;55.30
14585;DHT22;7379;51.506;11.876;2023-04-23T11:45:16;17.10;55.60
14585;DHT22;7379;51.506;11.876;2023-04-23T11:47:44;17.10;54.60
14585;DHT22;7379;51.506;11.876;2023-04-23T11:50:16;17.00;54.00
14585;DHT22;7379;51.506;11.876;2023-04-23T11:52:43;17.00;54.80
14585;DHT22;7379;51.506;11.876;2023-04-23T11:55:10;17.00;56.50
14585;DHT22;7379;51.506;11.876;2023-04-23T11:57:40;17.00;55.70
14585;DHT22;7379;51.506;11.876;2023-04-23T12:00:13;17.10;56.70
14585;DHT22;7379;51.506;11.876;2023-04-23T12:02:51;17.20;56.90
14585;DHT22;7379;51.506;11.876;2023-04-23T12:05:19;17.20;55.90
14585;DHT22;7379;51.506;11.876;2023-04-23T12:07:48;17.30;55.70
14585;DHT22;7379;51.506;11.876;2023-04-23T12:10:17;17.40;55.70
14585;DHT22;7379;51.506;11.876;2023-04-23T12:12:48;17.50;54.50
14585;DHT22;7379;51.506;11.876;2023-04-23T12:15:15;17.60;54.10
14585;DHT22;7379;51.506;11.876;2023-04-23T12:17:42;17.70;54.80
14585;DHT22;7379;51.506;11.876;2023-04-23T12:20:16;17.80;54.10
14585;DHT22;7379;51.506;11.876;2023-04-23T12:22:43;17.80;53.40
14585;DHT22;7379;51.506;11.876;2023-04-23T12:25:10;17.90;53.80
14585;DHT22;7379;51.506;11.876;2023-04-23T12:27:38;17.80;54.70
14585;DHT22;7379;51.506;11.876;2023-04-23T12:30:08;17.80;55.20
14585;DHT22;7379;51.506;11.876;2023-04-23T12:32:36;17.90;55.00
14585;DHT22;7379;51.506;11.876;2023-04-23T12:35:03;18.20;53.40
14585;DHT22;7379;51.506;11.876;2023-04-23T12:37:35;18.20;53.30
14585;DHT22;7379;51.506;11.876;2023-04-23T12:40:03;18.20;54.10
14585;DHT22;7379;51.506;11.876;2023-04-23T12:42:33;18.20;54.30
14585;DHT22;7379;51.506;11.876;2023-04-23T12:45:05;18.40;53.30
14585;DHT22;7379;51.506;11.876;2023-04-23T12:47:32;18.70;51.80
14585;DHT22;7379;51.506;11.876;2023-04-23T12:49:59;18.70;51.30
14585;DHT22;7379;51.506;11.876;2023-04-23T12:52:28;18.70;51.80
14585;DHT22;7379;51.506;11.876;2023-04-23T12:54:57;18.80;51.70
14585;DHT22;7379;51.506;11.876;2023-04-23T12:57:25;18.80;51.90
14585;DHT22;7379;51.506;11.876;2023-04-23T12:59:52;18.70;52.20
14585;DHT22;7379;51.506;11.876;2023-04-23T13:02:21;18.70;51.90
14585;DHT22;7379;51.506;11.876;2023-04-23T13:04:48;18.60;52.30
14585;DHT22;7379;51.506;11.876;2023-04-23T13:07:15;18.50;52.60
14585;DHT22;7379;51.506;11.876;2023-04-23T13:09:41;18.50;53.00
14585;DHT22;7379;51.506;11.876;2023-04-23T13:12:10;18.70;54.00
14585;DHT22;7379;51.506;11.876;2023-04-23T13:14:37;18.90;52.30
14585;DHT22;7379;51.506;11.876;2023-04-23T13:17:04;18.80;51.60
14585;DHT22;7379;51.506;11.876;2023-04-23T13:19:31;19.10;50.50
14585;DHT22;7379;51.506;11.876;2023-04-23T13:22:01;19.40;49.60
14585;DHT22;7379;51.506;11.876;2023-04-23T13:24:27;19.80;48.70
14585;DHT22;7379;51.506;11.876;2023-04-23T13:26:54;19.70;49.30
14585;DHT22;7379;51.506;11.876;2023-04-23T13:29:23;20.10;48.00
14585;DHT22;7379;51.506;11.876;2023-04-23T13:31:51;20.10;46.10
14585;DHT22;7379;51.506;11.876;2023-04-23T13:34:18;20.10;46.00
14585;DHT22;7379;51.506;11.876;2023-04-23T13:36:45;20.30;46.00
14585;DHT22;7379;51.506;11.876;2023-04-23T13:39:12;20.30;46.00
14585;DHT22;7379;51.506;11.876;2023-04-23T13:41:39;20.00;47.20
14585;DHT22;7379;51.506;11.876;2023-04-23T13:44:06;20.10;46.70
14585;DHT22;7379;51.506;11.876;2023-04-23T13:46:34;20.10;46.20
14585;DHT22;7379;51.506;11.876;2023-04-23T13:49:01;20.00;46.10
14585;DHT22;7379;51.506;11.876;2023-04-23T13:51:28;19.70;47.10
14585;DHT22;7379;51.506;11.876;2023-04-23T13:53:54;19.50;47.70
14585;DHT22;7379;51.506;11.876;2023-04-23T13:56:22;19.30;49.10
14585;DHT22;7379;51.506;11.876;2023-04-23T13:58:49;19.40;49.40
14585;DHT22;7379;51.506;11.876;2023-04-23T14:01:17;19.30;49.10
14585;DHT22;7379;51.506;11.876;2023-04-23T14:03:45;19.60;47.50
14585;DHT22;7379;51.506;11.876;2023-04-23T14:06:12;19.50;47.20
14585;DHT22;7379;51.506;11.876;2023-04-23T14:08:39;19.40;47.60
14585;DHT22;7379;51.506;11.876;2023-04-23T14:11:06;19.40;47.20
14585;DHT22;7379;51.506;11.876;2023-04-23T14:13:33;19.40;47.50
14585;DHT22;7379;51.506;11.876;2023-04-23T14:15:59;19.40;47.50
14585;DHT22;7379;51.506;11.876;2023-04-23T14:18:26;19.30;48.00
14585;DHT22;7379;51.506;11.876;2023-04-23T14:20:54;19.10;48.30
14585;DHT22;7379;51.506;11.876;2023-04-23T14:23:43;18.90;48.80
14585;DHT22;7379;51.506;11.876;2023-04-23T14:26:21;18.80;48.50
14585;DHT22;7379;51.506;11.876;2023-04-23T14:28:50;18.70;48.50
14585;DHT22;7379;51.506;11.876;2023-04-23T14:31:17;18.60;49.50
14585;DHT22;7379;51.506;11.876;2023-04-23T14:33:44;18.60;50.40
14585;DHT22;7379;51.506;11.876;2023-04-23T14:36:12;18.60;50.00
14585;DHT22;7379;51.506;11.876;2023-04-23T14:38:39;18.60;50.00
14585;DHT22;7379;51.506;11.876;2023-04-23T14:41:06;18.60;49.80
14585;DHT22;7379;51.506;11.876;2023-04-23T14:43:33;18.60;49.50
14585;DHT22;7379;51.506;11.876;2023-04-23T14:45:59;18.70;50.30
14585;DHT22;7379;51.506;11.876;2023-04-23T14:48:26;18.90;49.10
14585;DHT22;7379;51.506;11.876;2023-04-23T14:50:53;19.00;48.80
14585;DHT22;7379;51.506;11.876;2023-04-23T14:53:21;19.30;48.20
14585;DHT22;7379;51.506;11.876;2023-04-23T14:55:48;19.50;47.90
14585;DHT22;7379;51.506;11.876;2023-04-23T14:58:15;19.50;47.90
14585;DHT22;7379;51.506;11.876;2023-04-23T15:00:42;19.40;48.20
14585;DHT22;7379;51.506;11.876;2023-04-23T15:03:09;19.30;48.00
14585;DHT22;7379;51.506;11.876;2023-04-23T15:05:37;19.20;48.20
14585;DHT22;7379;51.506;11.876;2023-04-23T15:08:04;19.10;47.50
14585;DHT22;7379;51.506;11.876;2023-04-23T15:10:32;19.20;47.60
14585;DHT22;7379;51.506;11.876;2023-04-23T15:13:02;19.20;47.90
14585;DHT22;7379;51.506;11.876;2023-04-23T15:15:37;19.30;47.50
14585;DHT22;7379;51.506;11.876;2023-04-23T15:18:07;19.30;47.90
14585;DHT22;7379;51.506;11.876;2023-04-23T15:20:34;19.30;48.50
14585;DHT22;7379;51.506;11.876;2023-04-23T15:23:01;19.50;47.70
14585;DHT22;7379;51.506;11.876;2023-04-23T15:25:28;19.40;48.60
14585;DHT22;7379;51.506;11.876;2023-04-23T15:27:59;19.40;48.30
14585;DHT22;7379;51.506;11.876;2023-04-23T15:30:26;19.50;47.10
14585;DHT22;7379;51.506;11.876;2023-04-23T15:32:54;19.50;47.80
14585;DHT22;7379;51.506;11.876;2023-04-23T15:35:21;19.60;48.50